createdAt,value
2024-02-08T00:02:09.503Z,100181.13
2024-02-08T00:06:40.907Z,100172.47
2024-02-08T00:11:09.178Z,100161.34
2024-02-08T00:15:11.241Z,100174.56
2024-02-08T00:19:16.808Z,100163.72
2024-02-08T00:23:18.953Z,100168.31
2024-02-08T00:27:20.699Z,100164.88
2024-02-08T00:31:22.401Z,100164.63
2024-02-08T00:35:24.500Z,100159.91
2024-02-08T00:39:26.740Z,100166.28
2024-02-08T00:43:28.302Z,100154.88
2024-02-08T00:47:29.880Z,100154.75
2024-02-08T00:51:32.532Z,100156.13
2024-02-08T00:55:37.088Z,100154.53
2024-02-08T00:59:39.375Z,100141.97
2024-02-08T01:03:41.156Z,100151.03
2024-02-08T01:07:42.772Z,100144.94
2024-02-08T01:11:44.310Z,100142.56
2024-02-08T01:15:48.083Z,100126.03
2024-02-08T01:19:51.340Z,100118.53
2024-02-08T01:23:53.375Z,100122.28
2024-02-08T01:27:56.433Z,100104.56
2024-02-08T01:31:58.027Z,100108.69
2024-02-08T01:35:59.534Z,100100.56
2024-02-08T01:40:01.064Z,100093.16
2024-02-08T01:44:08.551Z,100098.44
2024-02-08T01:48:12.914Z,100101.19
2024-02-08T01:52:20.079Z,100094.41
2024-02-08T01:56:21.977Z,100098.66
2024-02-08T02:00:23.549Z,100089.84
2024-02-08T02:04:25.117Z,100085.69
2024-02-08T02:08:29.586Z,100075.38
2024-02-08T02:12:31.642Z,100076.66
2024-02-08T02:16:33.416Z,100073.69
2024-02-08T02:20:35.264Z,100070.88
2024-02-08T02:24:38.078Z,100067.00
2024-02-08T02:28:41.560Z,100065.44
2024-02-08T02:32:47.060Z,100062.38
2024-02-08T02:36:54.488Z,100064.06
2024-02-08T02:40:56.226Z,100043.13
2024-02-08T02:44:57.850Z,100059.13
2024-02-08T02:48:59.540Z,100052.53
2024-02-08T02:53:01.525Z,100059.63
2024-02-08T02:57:04.211Z,100048.03
2024-02-08T03:01:06.102Z,100064.13
2024-02-08T03:05:08.619Z,100059.28
2024-02-08T03:09:16.301Z,100053.84
2024-02-08T03:13:18.034Z,100044.28
2024-02-08T03:17:19.836Z,100048.91
2024-02-08T03:21:23.200Z,100048.63
2024-02-08T03:25:25.929Z,100044.31
2024-02-08T03:29:27.584Z,100044.59
2024-02-08T03:33:29.306Z,100052.03
2024-02-08T03:37:31.037Z,100052.81
2024-02-08T03:41:32.925Z,100044.19
2024-02-08T03:45:40.329Z,100029.91
2024-02-08T03:49:48.792Z,100039.47
2024-02-08T03:53:50.336Z,100041.16
2024-02-08T03:57:51.818Z,100041.19
2024-02-08T04:02:04.392Z,100045.81
2024-02-08T04:06:26.097Z,100050.00
2024-02-08T04:10:50.828Z,100052.28
2024-02-08T04:15:11.038Z,100056.97
2024-02-08T04:19:31.667Z,100063.31
2024-02-08T04:23:52.225Z,100053.03
2024-02-08T04:28:12.484Z,100058.88
2024-02-08T04:32:32.832Z,100058.84
2024-02-08T04:36:53.200Z,100045.28
2024-02-08T04:41:13.173Z,100049.81
2024-02-08T04:45:33.253Z,100040.97
2024-02-08T04:49:53.334Z,100032.22
2024-02-08T04:53:56.292Z,100036.94
2024-02-08T04:58:19.606Z,100051.69
2024-02-08T05:02:19.224Z,100054.50
2024-02-08T05:06:22.684Z,100057.28
2024-02-08T05:10:29.245Z,100057.72
2024-02-08T05:14:30.901Z,100052.66
2024-02-08T05:18:32.916Z,100048.50
2024-02-08T05:22:34.606Z,100051.88
2024-02-08T05:26:36.718Z,100049.41
2024-02-08T05:30:38.193Z,100056.25
2024-02-08T05:34:40.725Z,100050.44
2024-02-08T05:38:42.686Z,100045.06
2024-02-08T05:42:44.319Z,100057.59
2024-02-08T05:46:47.177Z,100060.00
2024-02-08T05:50:48.658Z,100053.59
2024-02-08T05:58:54.745Z,100054.63
2024-02-08T06:02:58.224Z,100055.03
2024-02-08T06:07:02.368Z,100069.31
2024-02-08T06:11:06.455Z,100069.72
2024-02-08T06:15:26.255Z,100082.44
2024-02-08T06:19:35.535Z,100079.47
2024-02-08T06:23:44.106Z,100080.94
2024-02-08T06:27:48.827Z,100077.13
2024-02-08T06:31:52.122Z,100079.31
2024-02-08T06:35:57.984Z,100071.81
2024-02-08T06:40:01.093Z,100080.94
2024-02-08T06:44:21.245Z,100088.31
2024-02-08T06:48:49.502Z,100083.03
2024-02-08T06:53:09.932Z,100087.50
2024-02-08T06:57:30.432Z,100085.13
2024-02-08T07:01:50.594Z,100078.50
2024-02-08T07:06:10.847Z,100081.94
2024-02-08T07:10:31.757Z,100083.63
2024-02-08T07:14:52.008Z,100073.69
2024-02-08T07:19:12.420Z,100077.88
2024-02-08T07:23:32.726Z,100076.59
2024-02-08T07:27:52.980Z,100061.19
2024-02-08T07:32:12.921Z,100065.22
2024-02-08T07:36:33.162Z,100062.97
2024-02-08T07:40:37.786Z,100071.69
2024-02-08T07:44:40.509Z,100070.22
2024-02-08T07:48:45.418Z,100073.59
2024-02-08T07:52:47.822Z,100072.09
2024-02-08T07:56:50.212Z,100056.09
2024-02-08T08:00:58.000Z,100061.00
2024-02-08T08:05:00.060Z,100066.84
2024-02-08T08:09:19.657Z,100060.81
2024-02-08T08:13:41.332Z,100059.75
2024-02-08T08:17:44.387Z,100068.09
2024-02-08T08:21:59.389Z,100075.22
2024-02-08T08:26:01.302Z,100070.91
2024-02-08T08:30:07.623Z,100062.53
2024-02-08T08:34:24.493Z,100061.13
2024-02-08T08:38:34.602Z,100076.22
2024-02-08T08:42:36.325Z,100071.72
2024-02-08T08:46:39.231Z,100064.97
2024-02-08T08:50:41.341Z,100079.84
2024-02-08T08:54:58.022Z,100074.69
2024-02-08T08:59:02.540Z,100065.25
2024-02-08T09:03:11.465Z,100067.84
2024-02-08T09:07:13.660Z,100067.97
2024-02-08T09:11:16.002Z,100071.50
2024-02-08T09:15:43.818Z,100067.28
2024-02-08T09:19:48.914Z,100068.75
2024-02-08T09:23:52.830Z,100071.03
2024-02-08T09:27:56.989Z,100078.03
2024-02-08T09:31:59.456Z,100067.25
2024-02-08T09:36:03.668Z,100077.00
2024-02-08T09:40:19.575Z,100074.00
2024-02-08T09:44:27.178Z,100088.66
2024-02-08T09:48:38.611Z,100078.88
2024-02-08T09:52:50.846Z,100080.81
2024-02-08T09:57:02.855Z,100081.72
2024-02-08T10:01:32.037Z,100081.59
2024-02-08T10:05:51.797Z,100085.38
2024-02-08T10:10:00.786Z,100080.81
2024-02-08T10:14:03.830Z,100083.41
2024-02-08T10:18:11.757Z,100076.72
2024-02-08T10:22:27.936Z,100067.75
2024-02-08T10:26:40.231Z,100067.81
2024-02-08T10:30:45.815Z,100052.25
2024-02-08T10:34:53.430Z,100065.50
2024-02-08T10:39:04.206Z,100061.91
2024-02-08T10:43:19.563Z,100050.47
2024-02-08T10:47:31.292Z,100057.72
2024-02-08T10:51:44.831Z,100048.38
2024-02-08T10:56:00.132Z,100047.25
2024-02-08T11:00:14.980Z,100041.00
2024-02-08T11:04:29.770Z,100041.41
2024-02-08T11:08:34.422Z,100038.06
2024-02-08T11:12:40.919Z,100034.81
2024-02-08T11:16:45.931Z,100037.00
2024-02-08T11:20:47.632Z,100023.31
2024-02-08T11:24:59.226Z,100024.44
2024-02-08T11:29:19.711Z,100023.69
2024-02-08T11:33:34.459Z,100021.38
2024-02-08T11:37:39.481Z,100020.25
2024-02-08T11:41:44.074Z,100022.06
2024-02-08T11:45:53.320Z,100032.50
2024-02-08T11:50:05.021Z,100029.94
2024-02-08T11:54:10.184Z,100028.91
2024-02-08T11:58:13.290Z,100028.56
2024-02-08T12:02:17.836Z,100032.28
2024-02-08T12:06:22.930Z,100018.69
2024-02-08T12:10:24.709Z,100016.50
2024-02-08T12:14:27.978Z,100016.22
2024-02-08T12:18:30.104Z,100020.16
2024-02-08T12:22:32.681Z,100013.59
2024-02-08T12:26:39.685Z,100004.38
2024-02-08T12:30:42.234Z,100001.44
2024-02-08T12:34:48.789Z,99999.69
2024-02-08T12:38:52.819Z,99988.75
2024-02-08T12:42:54.710Z,99995.88
2024-02-08T12:46:57.057Z,100015.25
2024-02-08T12:51:04.565Z,100010.38
2024-02-08T12:55:06.206Z,100002.38
2024-02-08T12:59:07.852Z,100000.03
2024-02-08T13:03:10.142Z,100002.19
2024-02-08T13:07:19.727Z,99995.16
2024-02-08T13:11:21.970Z,99980.00
2024-02-08T13:15:23.892Z,99982.94
2024-02-08T13:19:31.214Z,99989.47
2024-02-08T13:23:35.436Z,99982.75
2024-02-08T13:27:39.604Z,99991.25
2024-02-08T13:31:44.459Z,99984.66
2024-02-08T13:35:47.245Z,99983.03
2024-02-08T13:39:53.009Z,99972.34
2024-02-08T13:43:56.202Z,99971.91
2024-02-08T13:47:59.627Z,99966.84
2024-02-08T13:52:05.071Z,99965.06
2024-02-08T13:56:09.456Z,99966.38
2024-02-08T14:00:11.385Z,99964.19
2024-02-08T14:04:22.421Z,99966.28
2024-02-08T14:08:28.927Z,99965.34
2024-02-08T14:12:34.913Z,99959.81
2024-02-08T14:16:38.288Z,99951.28
2024-02-08T14:20:44.281Z,99941.13
2024-02-08T14:24:52.304Z,99946.47
2024-02-08T14:28:57.065Z,99956.22
2024-02-08T14:32:58.843Z,99950.56
2024-02-08T14:37:00.497Z,99953.19
2024-02-08T14:41:05.200Z,99956.72
2024-02-08T14:45:13.006Z,99956.47
2024-02-08T14:49:30.554Z,99964.03
2024-02-08T14:53:33.471Z,99961.47
2024-02-08T14:57:40.411Z,99952.72
2024-02-08T15:01:43.797Z,99955.97
2024-02-08T15:05:49.438Z,99954.69
2024-02-08T15:09:53.605Z,99943.91
2024-02-08T15:13:56.465Z,99936.44
2024-02-08T15:18:12.580Z,99930.53
2024-02-08T15:22:28.149Z,99924.06
2024-02-08T15:26:38.184Z,99910.31
2024-02-08T15:30:42.053Z,99908.72
2024-02-08T15:34:48.332Z,99902.09
2024-02-08T15:39:02.172Z,99912.47
2024-02-08T15:43:12.019Z,99897.78
2024-02-08T15:47:16.476Z,99897.09
2024-02-08T15:51:25.265Z,99889.72
2024-02-08T15:55:39.834Z,99888.94
2024-02-08T15:59:47.424Z,99874.75
2024-02-08T16:03:58.104Z,99853.28
2024-02-08T16:08:07.053Z,99842.47
2024-02-08T16:12:15.715Z,99834.66
2024-02-08T16:16:20.156Z,99830.72
2024-02-08T16:20:25.456Z,99830.16
2024-02-08T16:24:31.831Z,99822.47
2024-02-08T16:28:38.884Z,99826.06
2024-02-08T16:32:47.992Z,99819.69
2024-02-08T16:36:54.007Z,99821.00
2024-02-08T16:40:57.178Z,99813.00
2024-02-08T16:45:06.819Z,99818.50
2024-02-08T16:49:09.036Z,99815.63
2024-02-08T16:53:15.148Z,99823.81
2024-02-08T16:57:19.763Z,99814.38
2024-02-08T17:01:30.996Z,99821.06
2024-02-08T17:05:52.480Z,99814.88
2024-02-08T17:09:59.706Z,99812.63
2024-02-08T17:14:04.603Z,99816.75
2024-02-08T17:18:17.764Z,99806.72
2024-02-08T17:22:30.258Z,99803.97
2024-02-08T17:26:35.123Z,99809.44
2024-02-08T17:31:15.660Z,99807.50
2024-02-08T17:35:18.120Z,99820.44
2024-02-08T17:39:40.986Z,99824.13
2024-02-08T17:43:51.242Z,99818.81
2024-02-08T17:48:01.056Z,99819.47
2024-02-08T17:52:07.459Z,99810.38
2024-02-08T17:56:12.226Z,99809.94
2024-02-08T18:00:33.773Z,99820.75
2024-02-08T18:04:38.307Z,99824.84
2024-02-08T18:08:42.101Z,99811.97
2024-02-08T18:12:55.964Z,99802.13
2024-02-08T18:17:20.124Z,99818.63
2024-02-08T18:21:22.189Z,99818.22
2024-02-08T18:25:30.950Z,99817.97
2024-02-08T18:29:37.018Z,99819.03
2024-02-08T18:33:38.955Z,99811.75
2024-02-08T18:37:40.541Z,99822.66
2024-02-08T18:41:52.000Z,99814.88
2024-02-08T18:45:57.047Z,99826.53
2024-02-08T18:49:59.627Z,99821.00
2024-02-08T18:54:01.788Z,99818.22
2024-02-08T18:58:03.392Z,99822.22
2024-02-08T19:02:09.182Z,99826.97
2024-02-08T19:06:15.557Z,99835.81
2024-02-08T19:10:17.238Z,99822.53
2024-02-08T19:14:22.667Z,99830.25
2024-02-08T19:18:27.053Z,99822.50
2024-02-08T19:22:29.040Z,99827.19
2024-02-08T19:26:33.468Z,99830.38
2024-02-08T19:30:36.129Z,99826.28
2024-02-08T19:34:40.998Z,99817.25
2024-02-08T19:38:44.325Z,99808.41
2024-02-08T19:42:45.778Z,99808.31
2024-02-08T19:46:57.215Z,99801.22
2024-02-08T19:51:10.229Z,99803.84
2024-02-08T19:55:22.045Z,99797.59
2024-02-08T19:59:28.326Z,99791.84
2024-02-08T20:03:32.994Z,99790.34
2024-02-08T20:07:40.747Z,99791.38
2024-02-08T20:11:42.910Z,99795.31
2024-02-08T20:15:45.809Z,99782.72
2024-02-08T20:19:48.210Z,99793.09
2024-02-08T20:23:49.908Z,99798.91
2024-02-08T20:27:55.041Z,99795.88
2024-02-08T20:31:57.823Z,99795.03
2024-02-08T20:36:01.714Z,99801.22
2024-02-08T20:40:07.012Z,99792.72
2024-02-08T20:44:11.876Z,99793.75
2024-02-08T20:48:16.058Z,99799.47
2024-02-08T20:52:19.105Z,99794.72
2024-02-08T20:56:29.506Z,99793.28
2024-02-08T21:00:32.356Z,99790.97
2024-02-08T21:04:34.520Z,99790.75
2024-02-08T21:08:39.540Z,99793.19
2024-02-08T21:12:43.375Z,99786.66
2024-02-08T21:16:44.848Z,99778.69
2024-02-08T21:20:47.162Z,99783.63
2024-02-08T21:24:50.546Z,99785.03
2024-02-08T21:28:52.496Z,99769.28
2024-02-08T21:32:56.220Z,99772.81
2024-02-08T21:36:57.831Z,99765.34
2024-02-08T21:40:59.343Z,99769.41
2024-02-08T21:45:01.339Z,99764.56
2024-02-08T21:49:03.124Z,99769.19
2024-02-08T21:53:06.398Z,99775.34
2024-02-08T21:57:09.239Z,99776.88
2024-02-08T22:05:36.600Z,99770.63
2024-02-08T22:09:38.385Z,99778.03
2024-02-08T22:13:42.204Z,99782.34
2024-02-08T22:17:52.557Z,99781.22
2024-02-08T22:21:54.347Z,99786.72
2024-02-08T22:25:55.963Z,99760.44
2024-02-08T22:29:57.522Z,99774.53
2024-02-08T22:33:59.449Z,99769.28
2024-02-08T22:38:02.158Z,99762.00
2024-02-08T22:42:07.171Z,99771.25
2024-02-08T22:46:09.490Z,99765.59
2024-02-08T22:50:16.880Z,99779.16
2024-02-08T22:54:21.606Z,99768.78
2024-02-08T22:58:25.275Z,99763.72
2024-02-08T23:02:26.922Z,99767.63
2024-02-08T23:06:34.442Z,99745.94
2024-02-08T23:10:39.135Z,99759.41
2024-02-08T23:14:41.198Z,99756.81
2024-02-08T23:18:43.027Z,99745.59
2024-02-08T23:22:48.548Z,99749.59
2024-02-08T23:26:51.315Z,99751.81
2024-02-08T23:30:55.656Z,99739.06
2024-02-08T23:34:58.551Z,99721.19
2024-02-08T23:39:01.280Z,99722.47
2024-02-08T23:43:08.868Z,99730.13
2024-02-08T23:47:18.752Z,99735.34
2024-02-08T23:51:23.573Z,99738.97
2024-02-08T23:55:28.933Z,99721.56
2024-02-08T23:59:30.866Z,99711.06
